Time;durP1;ratioP1;P1;durP2;ratioP2;P2;SDS_P1;SDS_P2;PMS_P1;PMS_P2;Temp;Humidity;BMP_temperature;BMP_pressure;BME280_temperature;BME280_humidity;BME280_pressure;Samples;Min_cycle;Max_cycle;Signal;HPM_P1;HPM_P2
2023/01/03 00:00:33;;;;;;;;;;;;;;;;;;;;;
2023/01/03 00:03:02;;;;;;;47.60;26.33;;;;;;;;;;4961191;28;20183;-92
2023/01/03 00:06:09;;;;;;;42.30;26.63;;;;;;;;;;4956419;28;20183;-93
2023/01/03 00:08:39;;;;;;;42.37;26.23;;;;;;;;;;4972198;28;20301;-94
2023/01/03 00:12:22;;;;;;;52.20;26.87;;;;;;;;;;4940391;29;20215;-91
2023/01/03 00:14:22;;;;;;;40.73;25.13;;;;;;;;;;4968423;28;20183;-92
2023/01/03 00:16:56;;;;;;;45.33;25.73;;;;;;;;;;4973446;28;20187;-92
2023/01/03 00:19:23;;;;;;;40.00;25.03;;;;;;;;;;4973544;28;20179;-93
2023/01/03 00:21:49;;;;;;;38.70;25.27;;;;;;;;;;4974070;28;20176;-92
2023/01/03 00:24:49;;;;;;;40.87;25.10;;;;;;;;;;4973846;28;20171;-92
2023/01/03 00:27:20;;;;;;;43.70;26.90;;;;;;;;;;4944556;28;20195;-92
2023/01/03 00:30:09;;;;;;;43.07;25.93;;;;;;;;;;4973061;28;20203;-92
2023/01/03 00:32:43;;;;;;;47.93;25.80;;;;;;;;;;4972236;28;20187;-93
2023/01/03 00:35:40;;;;;;;45.13;25.73;;;;;;;;;;4925272;29;20175;-92
2023/01/03 00:41:44;;;;;;;45.10;25.83;;;;;;;;;;4939734;28;20212;-92
2023/01/03 00:44:31;;;;;;;45.03;25.93;;;;;;;;;;4933983;29;20181;-93
2023/01/03 00:50:04;;;;;;;63.03;36.63;;;;;;;;;;4958359;28;20307;-92
2023/01/03 00:52:53;;;;;;;47.43;29.87;;;;;;;;;;4926305;29;20187;-92
2023/01/03 00:55:37;;;;;;;;;;;;;;;;;;;;;
2023/01/03 01:04:13;;;;;;;41.80;24.87;;;;;;;;;;4949289;28;20211;-93
2023/01/03 01:07:22;;;;;;;40.20;25.10;;;;;;;;;;4973046;28;20238;-92
2023/01/03 01:13:09;;;;;;;42.50;25.93;;;;;;;;;;4959001;29;20162;-92
2023/01/03 01:15:53;;;;;;;42.10;25.77;;;;;;;;;;4956345;28;20195;-93
2023/01/03 01:21:31;;;;;;;49.77;27.07;;;;;;;;;;4936148;29;20202;-91
2023/01/03 01:24:07;;;;;;;43.77;27.63;;;;;;;;;;4943916;29;20183;-92
2023/01/03 01:26:33;;;;;;;47.70;28.30;;;;;;;;;;4943198;29;20187;-90
2023/01/03 01:29:09;;;;;;;;;;;;;;;;;;;;;
2023/01/03 01:31:54;;;;;;;47.73;30.07;;;;;;;;;;4959117;29;20210;-91
2023/01/03 01:34:26;;;;;;;49.60;30.23;;;;;;;;;;4927019;29;20274;-90
2023/01/03 01:37:02;;;;;;;52.33;29.53;;;;;;;;;;4974700;28;20199;-91
2023/01/03 01:39:29;;;;;;;48.63;29.60;;;;;;;;;;4974856;28;20279;-90
2023/01/03 01:48:21;;;;;;;51.67;31.37;;;;;;;;;;4961722;28;20207;-91
2023/01/03 01:50:52;;;;;;;46.43;28.90;;;;;;;;;;4974052;28;20215;-90
2023/01/03 01:53:25;;;;;;;46.30;29.17;;;;;;;;;;4973754;28;20192;-90
2023/01/03 01:55:56;;;;;;;46.87;29.27;;;;;;;;;;4973501;28;20183;-90
2023/01/03 01:58:38;;;;;;;53.50;30.37;;;;;;;;;;4973877;28;20179;-90
2023/01/03 02:01:08;;;;;;;46.77;29.57;;;;;;;;;;4974300;28;20187;-90
2023/01/03 02:03:35;;;;;;;48.27;29.20;;;;;;;;;;4974179;28;20253;-90
2023/01/03 02:08:58;;;;;;;;;;;;;;;;;;;;;
2023/01/03 02:14:47;;;;;;;48.53;29.87;;;;;;;;;;4957937;29;20190;-89
2023/01/03 02:17:32;;;;;;;48.93;30.43;;;;;;;;;;4973589;28;20183;-91
2023/01/03 02:20:38;;;;;;;50.87;30.33;;;;;;;;;;4973327;28;20198;-90
2023/01/03 02:24:06;;;;;;;50.80;30.23;;;;;;;;;;4958395;28;20241;-91
2023/01/03 02:29:39;;;;;;;51.67;31.20;;;;;;;;;;4957218;28;20186;-90
2023/01/03 02:32:19;;;;;;;50.63;32.83;;;;;;;;;;4973131;28;20194;-90
2023/01/03 02:35:08;;;;;;;52.30;32.93;;;;;;;;;;4973301;28;20183;-91
2023/01/03 02:37:37;;;;;;;54.50;33.50;;;;;;;;;;4973515;28;20186;-90
2023/01/03 02:40:13;;;;;;;54.70;33.47;;;;;;;;;;4973526;28;20180;-91
2023/01/03 02:43:04;;;;;;;58.67;34.27;;;;;;;;;;4973713;28;20182;-89
2023/01/03 02:45:41;;;;;;;59.70;35.27;;;;;;;;;;4973368;28;20179;-91
2023/01/03 02:48:11;;;;;;;55.47;35.07;;;;;;;;;;4973082;28;20256;-91
2023/01/03 02:50:41;;;;;;;58.83;35.37;;;;;;;;;;4972470;28;20215;-91
2023/01/03 02:53:13;;;;;;;52.60;34.97;;;;;;;;;;4972505;28;20186;-91
2023/01/03 02:55:49;;;;;;;53.13;35.83;;;;;;;;;;4972780;28;20184;-91
2023/01/03 02:58:24;;;;;;;47.97;33.57;;;;;;;;;;4972980;28;20193;-91
2023/01/03 03:00:54;;;;;;;56.90;35.17;;;;;;;;;;4971647;28;20195;-90
2023/01/03 03:03:22;;;;;;;50.97;34.50;;;;;;;;;;4941584;29;20203;-90
2023/01/03 03:06:07;;;;;;;52.93;35.47;;;;;;;;;;4941205;29;20183;-90
2023/01/03 03:08:36;;;;;;;53.30;33.87;;;;;;;;;;4939905;29;20265;-91
2023/01/03 03:14:02;;;;;;;52.53;34.93;;;;;;;;;;4957315;29;20194;-91
2023/01/03 03:16:47;;;;;;;56.07;36.07;;;;;;;;;;4941034;29;20234;-90
2023/01/03 03:25:02;;;;;;;53.97;35.07;;;;;;;;;;4976688;28;20206;-90
2023/01/03 03:30:24;;;;;;;60.47;37.97;;;;;;;;;;4976183;28;20305;-91
2023/01/03 03:33:05;;;;;;;60.43;38.43;;;;;;;;;;4958751;28;20198;-91
2023/01/03 03:35:40;;;;;;;58.23;38.97;;;;;;;;;;4958642;28;20217;-90
2023/01/03 03:38:10;;;;;;;65.17;40.37;;;;;;;;;;4947852;28;20182;-90
2023/01/03 03:46:26;;;;;;;65.73;40.47;;;;;;;;;;4956773;29;20242;-89
2023/01/03 03:51:37;;;;;;;64.00;41.50;;;;;;;;;;4956381;29;20214;-90
2023/01/03 03:54:12;;;;;;;67.03;42.67;;;;;;;;;;4955746;28;20183;-90
2023/01/03 03:56:47;;;;;;;62.50;40.73;;;;;;;;;;4971771;28;20265;-90
2023/01/03 03:59:21;;;;;;;60.87;40.67;;;;;;;;;;4972172;28;20175;-90
2023/01/03 04:01:47;;;;;;;69.27;40.93;;;;;;;;;;4971774;28;20218;-89
2023/01/03 04:04:26;;;;;;;59.60;41.37;;;;;;;;;;4971413;28;20213;-89
2023/01/03 04:06:58;;;;;;;61.03;40.63;;;;;;;;;;4971675;28;20245;-89
2023/01/03 04:09:33;;;;;;;64.83;42.07;;;;;;;;;;4971215;28;20218;-90
2023/01/03 04:12:07;;;;;;;58.47;40.73;;;;;;;;;;4971303;28;20376;-91
2023/01/03 04:14:33;;;;;;;58.07;39.63;;;;;;;;;;4971355;28;20178;-90
2023/01/03 04:17:04;;;;;;;59.37;40.60;;;;;;;;;;4968887;28;20172;-90
2023/01/03 04:19:52;;;;;;;;;;;;;;;;;;;;;
2023/01/03 04:22:24;;;;;;;49.43;35.40;;;;;;;;;;4956791;28;20183;-91
2023/01/03 04:24:53;;;;;;;52.83;34.73;;;;;;;;;;4939464;28;20194;-91
2023/01/03 04:27:30;;;;;;;46.10;33.37;;;;;;;;;;4958586;28;20233;-91
2023/01/03 04:30:12;;;;;;;44.93;31.60;;;;;;;;;;4942505;28;20300;-90
2023/01/03 04:32:41;;;;;;;47.10;30.77;;;;;;;;;;4958230;28;20202;-91
2023/01/03 04:35:11;;;;;;;42.57;30.33;;;;;;;;;;4956228;28;20178;-91
2023/01/03 04:37:37;;;;;;;39.77;28.20;;;;;;;;;;4970954;28;20203;-90
2023/01/03 04:40:03;;;;;;;38.23;28.17;;;;;;;;;;4971035;28;20184;-91
2023/01/03 04:45:24;;;;;;;39.33;27.47;;;;;;;;;;4956264;29;20190;-90
2023/01/03 04:47:50;;;;;;;35.40;26.60;;;;;;;;;;4923575;29;20183;-91
2023/01/03 04:50:45;;;;;;;36.17;26.73;;;;;;;;;;4971138;28;20254;-91
2023/01/03 04:53:13;;;;;;;35.60;26.70;;;;;;;;;;4940819;29;20199;-91
2023/01/03 04:55:52;;;;;;;35.70;26.03;;;;;;;;;;4975393;28;20210;-92
2023/01/03 04:58:19;;;;;;;34.20;25.50;;;;;;;;;;4975330;28;20183;-91
2023/01/03 05:00:58;;;;;;;32.00;25.73;;;;;;;;;;4975560;28;20237;-93
2023/01/03 05:03:29;;;;;;;32.37;25.80;;;;;;;;;;4975299;28;20298;-91
2023/01/03 05:06:02;;;;;;;33.23;25.63;;;;;;;;;;4974937;28;20282;-89
2023/01/03 05:08:30;;;;;;;36.60;26.80;;;;;;;;;;4958352;28;20239;-90
2023/01/03 05:10:57;;;;;;;39.40;25.47;;;;;;;;;;4942868;28;20219;-91
2023/01/03 05:13:25;;;;;;;36.60;25.27;;;;;;;;;;4928035;29;20183;-90
2023/01/03 05:15:59;;;;;;;35.37;25.93;;;;;;;;;;4943640;28;20267;-92
2023/01/03 05:18:30;;;;;;;31.33;25.53;;;;;;;;;;4929373;29;20190;-91
2023/01/03 05:26:30;;;;;;;37.77;25.00;;;;;;;;;;4960520;29;20241;-89
2023/01/03 05:29:00;;;;;;;36.07;25.80;;;;;;;;;;4942225;28;20194;-90
2023/01/03 05:31:26;;;;;;;36.80;26.30;;;;;;;;;;4942292;28;20217;-90
2023/01/03 05:34:22;;;;;;;;;;;;;;;;;;;;;
2023/01/03 05:36:59;;;;;;;39.77;25.53;;;;;;;;;;4959585;29;20175;-92
2023/01/03 05:39:55;;;;;;;36.53;25.00;;;;;;;;;;4942673;29;20199;-91
2023/01/03 05:42:21;;;;;;;34.83;25.33;;;;;;;;;;4942030;28;20176;-91
2023/01/03 05:44:48;;;;;;;36.20;24.97;;;;;;;;;;4942936;28;20199;-91
2023/01/03 05:47:29;;;;;;;34.83;25.77;;;;;;;;;;4942207;29;20226;-91
2023/01/03 05:50:07;;;;;;;;;;;;;;;;;;;;;
2023/01/03 05:52:40;;;;;;;36.27;25.27;;;;;;;;;;4959506;28;20172;-91
2023/01/03 05:58:30;;;;;;;34.27;24.77;;;;;;;;;;4955409;29;20179;-91
2023/01/03 06:01:38;;;;;;;32.40;24.30;;;;;;;;;;4959225;29;20187;-91
2023/01/03 06:04:04;;;;;;;36.37;24.07;;;;;;;;;;4929333;29;20213;-92
2023/01/03 06:06:48;;;;;;;38.00;24.10;;;;;;;;;;4941852;28;20234;-90
2023/01/03 06:09:16;;;;;;;32.13;24.20;;;;;;;;;;4957751;28;20222;-91
2023/01/03 06:11:42;;;;;;;39.90;25.20;;;;;;;;;;4958422;28;20301;-91
2023/01/03 06:14:18;;;;;;;36.83;24.70;;;;;;;;;;4958884;28;20172;-89
2023/01/03 06:19:50;;;;;;;36.20;24.30;;;;;;;;;;4964027;28;20190;-90
2023/01/03 06:22:16;;;;;;;37.10;23.63;;;;;;;;;;4997272;28;20178;-91
2023/01/03 06:24:52;;;;;;;36.47;24.03;;;;;;;;;;4981832;28;20187;-90
2023/01/03 06:27:31;;;;;;;;;;;;;;;;;;;;;
2023/01/03 06:30:20;;;;;;;34.57;23.50;;;;;;;;;;4967672;28;20222;-91
2023/01/03 06:32:49;;;;;;;33.77;23.70;;;;;;;;;;4964638;28;20212;-90
2023/01/03 06:35:21;;;;;;;34.83;24.87;;;;;;;;;;4941214;28;20183;-89
2023/01/03 06:37:54;;;;;;;34.27;25.23;;;;;;;;;;4956580;28;20182;-90
2023/01/03 06:40:22;;;;;;;33.80;25.33;;;;;;;;;;4975149;28;20186;-90
2023/01/03 06:43:06;;;;;;;34.97;24.13;;;;;;;;;;4958655;28;20184;-92
2023/01/03 06:54:28;;;;;;;;;;;;;;;;;;;;;
2023/01/03 06:57:03;;;;;;;33.30;23.37;;;;;;;;;;4959448;28;20179;-88
2023/01/03 06:59:35;;;;;;;35.00;24.63;;;;;;;;;;4976184;28;20186;-89
2023/01/03 07:02:05;;;;;;;37.83;23.93;;;;;;;;;;4969651;28;20171;-91
2023/01/03 07:04:39;;;;;;;45.70;33.23;;;;;;;;;;4955343;28;20415;-91
2023/01/03 07:07:05;;;;;;;35.93;25.50;;;;;;;;;;4964160;28;20432;-91
2023/01/03 07:09:38;;;;;;;36.53;24.03;;;;;;;;;;4961625;28;20189;-89
2023/01/03 07:15:00;;;;;;;31.90;22.50;;;;;;;;;;4959676;28;20190;-91
2023/01/03 07:17:26;;;;;;;31.30;21.27;;;;;;;;;;4943148;28;20245;-90
2023/01/03 07:19:55;;;;;;;29.67;22.10;;;;;;;;;;4940580;28;20190;-90
2023/01/03 07:22:22;;;;;;;32.27;22.30;;;;;;;;;;4940351;28;20186;-91
2023/01/03 07:24:57;;;;;;;30.23;22.10;;;;;;;;;;4951062;28;20182;-90
2023/01/03 07:27:32;;;;;;;31.43;22.40;;;;;;;;;;4956632;28;20178;-91
2023/01/03 07:29:58;;;;;;;30.50;21.97;;;;;;;;;;4940547;29;20211;-92
2023/01/03 07:32:34;;;;;;;29.00;22.57;;;;;;;;;;4951159;28;20181;-90
2023/01/03 07:35:01;;;;;;;29.50;20.77;;;;;;;;;;4952920;28;20320;-91
2023/01/03 07:37:30;;;;;;;30.00;20.33;;;;;;;;;;4950194;28;20188;-89
2023/01/03 07:39:58;;;;;;;29.20;21.53;;;;;;;;;;4944610;28;20242;-91
2023/01/03 07:45:17;;;;;;;30.50;22.37;;;;;;;;;;4968851;28;20197;-90
2023/01/03 07:47:51;;;;;;;31.03;21.57;;;;;;;;;;4950459;28;20194;-92
2023/01/03 07:50:18;;;;;;;30.10;21.07;;;;;;;;;;4975931;28;20206;-90
2023/01/03 07:52:44;;;;;;;33.27;20.97;;;;;;;;;;4977927;28;20181;-91
2023/01/03 07:55:17;;;;;;;27.87;21.50;;;;;;;;;;4978130;28;20186;-92
2023/01/03 07:57:52;;;;;;;28.60;21.27;;;;;;;;;;4960436;28;20198;-90
2023/01/03 08:00:21;;;;;;;23.60;20.13;;;;;;;;;;4957046;28;20257;-90
2023/01/03 08:02:49;;;;;;;24.03;20.23;;;;;;;;;;4955383;28;20183;-90
2023/01/03 08:05:16;;;;;;;25.50;20.10;;;;;;;;;;4939140;28;20217;-89
2023/01/03 08:07:44;;;;;;;27.23;20.87;;;;;;;;;;4939186;28;20239;-89
2023/01/03 08:15:42;;;;;;;31.40;22.53;;;;;;;;;;4957935;28;20194;-90
2023/01/03 08:18:09;;;;;;;33.87;23.53;;;;;;;;;;4958869;28;20182;-90
2023/01/03 08:20:37;;;;;;;31.90;22.87;;;;;;;;;;4958103;28;20178;-90
2023/01/03 08:23:08;;;;;;;28.03;22.30;;;;;;;;;;4958185;28;20179;-90
2023/01/03 08:25:44;;;;;;;30.50;22.10;;;;;;;;;;4948996;28;20187;-90
2023/01/03 08:28:16;;;;;;;29.17;21.67;;;;;;;;;;4954266;28;20185;-90
2023/01/03 08:30:46;;;;;;;28.90;20.83;;;;;;;;;;4961707;28;20209;-91
2023/01/03 08:33:21;;;;;;;25.07;20.00;;;;;;;;;;4960899;28;20274;-90
2023/01/03 08:36:07;;;;;;;26.80;19.87;;;;;;;;;;4961108;28;20258;-92
2023/01/03 08:38:43;;;;;;;31.13;20.67;;;;;;;;;;4947124;29;20189;-91
2023/01/03 08:41:14;;;;;;;24.37;19.27;;;;;;;;;;4975102;28;20190;-90
2023/01/03 08:43:42;;;;;;;24.87;17.63;;;;;;;;;;4970931;28;20187;-91
2023/01/03 08:46:19;;;;;;;29.50;20.30;;;;;;;;;;4953455;28;20182;-90
2023/01/03 08:48:54;;;;;;;25.77;19.90;;;;;;;;;;4961727;28;20193;-92
2023/01/03 08:51:25;;;;;;;28.27;21.17;;;;;;;;;;4945244;28;20218;-89
2023/01/03 08:54:01;;;;;;;26.47;18.33;;;;;;;;;;4954307;28;20186;-90
2023/01/03 08:56:38;;;;;;;29.03;20.43;;;;;;;;;;4962073;28;20178;-90
2023/01/03 08:59:14;;;;;;;;;;;;;;;;;;;;;
2023/01/03 09:01:49;;;;;;;24.93;19.33;;;;;;;;;;4970878;28;20205;-91
2023/01/03 09:04:15;;;;;;;24.57;18.63;;;;;;;;;;4959715;28;20215;-90
2023/01/03 09:06:44;;;;;;;26.13;18.23;;;;;;;;;;4959724;28;20183;-90
2023/01/03 09:09:12;;;;;;;26.53;17.77;;;;;;;;;;4945140;29;20231;-89
2023/01/03 09:11:57;;;;;;;21.30;16.97;;;;;;;;;;4969151;28;20210;-91
2023/01/03 09:17:43;;;;;;;21.97;16.33;;;;;;;;;;4973810;28;20244;-90
2023/01/03 09:20:18;;;;;;;25.90;17.33;;;;;;;;;;4967454;28;20198;-91
2023/01/03 09:22:46;;;;;;;25.77;17.93;;;;;;;;;;4954784;28;20221;-91
2023/01/03 09:25:17;;;;;;;27.33;17.80;;;;;;;;;;4951260;29;20252;-89
2023/01/03 09:27:45;;;;;;;27.93;18.30;;;;;;;;;;4946126;28;20206;-89
2023/01/03 09:30:33;;;;;;;25.63;17.70;;;;;;;;;;4960835;28;20218;-89
2023/01/03 09:33:04;;;;;;;22.20;16.37;;;;;;;;;;4960713;28;20225;-88
2023/01/03 09:35:30;;;;;;;29.97;17.57;;;;;;;;;;4952283;29;20214;-89
2023/01/03 09:38:00;;;;;;;23.23;16.47;;;;;;;;;;4962960;28;20223;-87
2023/01/03 09:40:26;;;;;;;26.63;16.70;;;;;;;;;;4951437;29;20184;-89
2023/01/03 09:45:42;;;;;;;26.63;16.63;;;;;;;;;;4971825;28;20214;-90
2023/01/03 09:48:16;;;;;;;25.73;16.60;;;;;;;;;;4947774;28;20185;-90
2023/01/03 09:50:51;;;;;;;24.40;16.67;;;;;;;;;;4956751;28;20241;-89
2023/01/03 10:05:09;;;;;;;26.27;18.53;;;;;;;;;;4962999;28;20221;-90
2023/01/03 10:08:01;;;;;;;33.37;18.07;;;;;;;;;;4946407;28;20296;-87
2023/01/03 10:10:51;;;;;;;;;;;;;;;;;;;;;
2023/01/03 10:13:41;;;;;;;27.97;18.13;;;;;;;;;;4957930;28;20286;-88
2023/01/03 10:16:07;;;;;;;28.97;18.13;;;;;;;;;;4962137;28;20183;-88
2023/01/03 10:18:39;;;;;;;32.47;17.63;;;;;;;;;;4958071;28;20179;-88
2023/01/03 10:21:22;;;;;;;28.87;17.30;;;;;;;;;;4947188;28;20191;-89
2023/01/03 10:27:13;;;;;;;26.23;17.10;;;;;;;;;;4972287;28;20190;-90
2023/01/03 10:29:39;;;;;;;23.57;16.73;;;;;;;;;;4947327;28;20193;-87
2023/01/03 10:32:17;;;;;;;28.73;17.80;;;;;;;;;;4964243;28;20175;-88
2023/01/03 10:34:46;;;;;;;24.17;16.77;;;;;;;;;;4967047;28;20190;-87
2023/01/03 10:37:27;;;;;;;;;;;;;;;;;;;;;
2023/01/03 10:40:04;;;;;;;27.77;15.90;;;;;;;;;;4974991;28;20170;-87
2023/01/03 10:45:50;;;;;;;28.20;16.97;;;;;;;;;;4964587;28;20191;-89
2023/01/03 10:48:34;;;;;;;26.77;16.93;;;;;;;;;;4946011;28;20281;-88
2023/01/03 10:51:05;;;;;;;23.13;15.17;;;;;;;;;;4947137;28;20327;-88
2023/01/03 10:53:37;;;;;;;21.53;15.57;;;;;;;;;;4948921;28;20191;-87
2023/01/03 10:56:17;;;;;;;;;;;;;;;;;;;;;
2023/01/03 10:58:43;;;;;;;24.07;15.20;;;;;;;;;;4971072;28;20179;-87
2023/01/03 11:01:21;;;;;;;26.47;15.23;;;;;;;;;;4949203;28;20206;-88
2023/01/03 11:04:23;;;;;;;22.80;14.60;;;;;;;;;;4945648;28;20315;-91
2023/01/03 11:07:03;;;;;;;23.10;15.37;;;;;;;;;;4951814;28;20266;-91
2023/01/03 11:09:34;;;;;;;24.87;16.07;;;;;;;;;;4940168;28;20242;-88
2023/01/03 11:12:14;;;;;;;22.37;15.00;;;;;;;;;;4940217;28;20238;-89
2023/01/03 11:14:48;;;;;;;25.03;15.13;;;;;;;;;;4946679;28;20182;-88
2023/01/03 11:17:15;;;;;;;24.20;15.53;;;;;;;;;;4959275;28;20174;-87
2023/01/03 11:19:47;;;;;;;24.20;16.03;;;;;;;;;;4940097;28;20211;-89
2023/01/03 11:22:31;;;;;;;24.07;14.23;;;;;;;;;;4939694;28;20184;-90
2023/01/03 11:25:07;;;;;;;23.47;14.17;;;;;;;;;;4939703;28;20254;-88
2023/01/03 11:27:44;;;;;;;21.87;13.63;;;;;;;;;;4939477;28;20202;-88
2023/01/03 11:30:49;;;;;;;19.27;13.33;;;;;;;;;;4939328;29;20215;-89
2023/01/03 11:33:44;;;;;;;23.60;13.87;;;;;;;;;;4939431;28;20250;-89
2023/01/03 11:36:43;;;;;;;17.63;13.20;;;;;;;;;;4939119;29;20188;-89
2023/01/03 11:39:18;;;;;;;18.87;12.80;;;;;;;;;;4945066;28;20198;-89
2023/01/03 11:42:08;;;;;;;21.57;13.43;;;;;;;;;;4939280;28;20190;-91
2023/01/03 11:44:56;;;;;;;16.90;12.50;;;;;;;;;;4939264;28;20191;-89
2023/01/03 11:47:45;;;;;;;18.50;12.03;;;;;;;;;;4939418;28;20183;-91
2023/01/03 11:50:32;;;;;;;14.87;11.73;;;;;;;;;;4927703;29;20227;-89
2023/01/03 11:53:12;;;;;;;20.03;11.73;;;;;;;;;;4939112;28;20262;-91
2023/01/03 11:55:41;;;;;;;19.57;11.23;;;;;;;;;;4963018;28;20274;-89
2023/01/03 11:58:32;;;;;;;;;;;;;;;;;;;;;
2023/01/03 12:01:19;;;;;;;19.47;11.57;;;;;;;;;;4955834;28;20198;-89
2023/01/03 12:03:54;;;;;;;18.43;11.37;;;;;;;;;;4970183;28;20337;-90
2023/01/03 12:06:29;;;;;;;15.27;10.83;;;;;;;;;;4966592;28;20191;-90
2023/01/03 12:09:21;;;;;;;14.73;10.67;;;;;;;;;;4970880;28;20231;-89
2023/01/03 12:12:04;;;;;;;13.93;11.10;;;;;;;;;;4970511;28;20215;-89
2023/01/03 12:15:00;;;;;;;17.37;10.80;;;;;;;;;;4971141;28;20242;-88
2023/01/03 12:17:33;;;;;;;13.27;11.23;;;;;;;;;;4963971;28;20184;-88
2023/01/03 12:20:17;;;;;;;13.77;11.03;;;;;;;;;;4939055;28;20264;-88
2023/01/03 12:23:03;;;;;;;15.97;10.30;;;;;;;;;;4950906;28;20190;-89
2023/01/03 12:25:40;;;;;;;16.07;11.07;;;;;;;;;;4948786;28;20183;-89
2023/01/03 12:28:26;;;;;;;17.30;10.70;;;;;;;;;;4953285;28;20221;-89
2023/01/03 12:31:10;;;;;;;15.80;10.37;;;;;;;;;;4949754;28;20227;-88
2023/01/03 12:33:50;;;;;;;16.90;9.23;;;;;;;;;;4945426;28;20191;-89
2023/01/03 12:36:42;;;;;;;14.67;9.53;;;;;;;;;;4957514;28;20272;-89
2023/01/03 12:39:31;;;;;;;12.43;9.53;;;;;;;;;;4948954;29;20179;-89
2023/01/03 12:42:06;;;;;;;14.37;10.07;;;;;;;;;;4975109;28;20194;-88
2023/01/03 12:44:55;;;;;;;16.37;10.03;;;;;;;;;;4940349;28;20208;-89
2023/01/03 12:47:29;;;;;;;15.67;10.10;;;;;;;;;;4935035;29;20195;-88
2023/01/03 12:49:57;;;;;;;15.37;9.97;;;;;;;;;;4941056;28;20203;-90
2023/01/03 12:52:27;;;;;;;16.37;10.70;;;;;;;;;;4949801;28;20422;-88
2023/01/03 12:55:14;;;;;;;13.70;9.70;;;;;;;;;;4950113;28;20190;-88
2023/01/03 12:57:56;;;;;;;13.17;9.67;;;;;;;;;;4951888;28;20178;-88
2023/01/03 13:00:41;;;;;;;13.07;9.07;;;;;;;;;;4958890;28;20241;-88
2023/01/03 13:03:19;;;;;;;19.63;9.17;;;;;;;;;;4945244;28;20230;-90
2023/01/03 13:05:59;;;;;;;13.77;8.43;;;;;;;;;;4961601;28;20211;-88
2023/01/03 13:08:48;;;;;;;11.47;8.57;;;;;;;;;;4948087;28;20226;-87
2023/01/03 13:11:26;;;;;;;11.63;8.47;;;;;;;;;;4963987;28;20207;-87
2023/01/03 13:14:02;;;;;;;12.70;8.43;;;;;;;;;;4949080;28;20175;-88
2023/01/03 13:16:32;;;;;;;11.23;8.93;;;;;;;;;;4963508;28;20220;-88
2023/01/03 13:19:19;;;;;;;12.37;9.03;;;;;;;;;;4964958;28;20187;-88
2023/01/03 13:21:57;;;;;;;12.17;9.03;;;;;;;;;;4933253;29;20234;-88
2023/01/03 13:24:58;;;;;;;14.30;8.20;;;;;;;;;;4948848;28;20233;-88
2023/01/03 13:27:34;;;;;;;11.87;8.57;;;;;;;;;;4895107;29;20188;-90
2023/01/03 13:30:00;;;;;;;11.13;8.43;;;;;;;;;;4934093;29;20191;-88
2023/01/03 13:32:27;;;;;;;12.90;8.67;;;;;;;;;;4973446;28;20274;-89
2023/01/03 13:34:53;;;;;;;13.40;9.37;;;;;;;;;;4944122;28;20416;-91
2023/01/03 13:37:39;;;;;;;10.83;7.83;;;;;;;;;;4957916;28;20187;-90
2023/01/03 13:40:18;;;;;;;11.03;6.83;;;;;;;;;;4976428;28;20260;-88
2023/01/03 13:42:46;;;;;;;8.90;6.37;;;;;;;;;;4979889;28;20197;-88
2023/01/03 13:45:18;;;;;;;8.53;5.77;;;;;;;;;;4968105;28;20195;-90
2023/01/03 13:48:01;;;;;;;10.33;4.57;;;;;;;;;;4951478;28;20211;-92
2023/01/03 13:53:51;;;;;;;8.63;5.20;;;;;;;;;;4945987;29;20211;-89
2023/01/03 13:56:19;;;;;;;7.70;4.60;;;;;;;;;;4951139;28;20241;-90
2023/01/03 13:58:47;;;;;;;6.80;4.40;;;;;;;;;;4956527;28;20211;-89
2023/01/03 14:01:33;;;;;;;7.17;4.20;;;;;;;;;;4952523;28;20187;-89
2023/01/03 14:04:14;;;;;;;8.53;4.57;;;;;;;;;;4959207;28;20213;-89
2023/01/03 14:06:57;;;;;;;8.53;4.57;;;;;;;;;;4943839;28;20195;-88
2023/01/03 14:09:38;;;;;;;7.43;4.60;;;;;;;;;;4941475;29;20198;-90
2023/01/03 14:12:23;;;;;;;5.40;4.30;;;;;;;;;;4941681;28;20298;-89
2023/01/03 14:14:56;;;;;;;6.97;4.30;;;;;;;;;;4941535;28;20183;-89
2023/01/03 14:17:25;;;;;;;7.90;4.93;;;;;;;;;;4971753;28;20218;-91
2023/01/03 14:19:55;;;;;;;5.80;4.40;;;;;;;;;;4942212;28;20215;-89
2023/01/03 14:22:22;;;;;;;6.23;4.40;;;;;;;;;;4941597;28;20202;-90
2023/01/03 14:24:55;;;;;;;6.23;4.57;;;;;;;;;;4941495;28;20263;-89
2023/01/03 14:27:22;;;;;;;8.77;4.80;;;;;;;;;;4958967;28;20183;-90
2023/01/03 14:29:51;;;;;;;11.50;5.37;;;;;;;;;;4943688;28;20277;-88
2023/01/03 14:32:42;;;;;;;6.40;4.67;;;;;;;;;;4947539;28;20191;-91
2023/01/03 14:35:27;;;;;;;6.80;4.90;;;;;;;;;;4960467;28;20179;-91
2023/01/03 14:37:53;;;;;;;8.10;5.63;;;;;;;;;;4954492;28;20191;-89
2023/01/03 14:40:20;;;;;;;8.23;6.53;;;;;;;;;;4962853;28;20205;-90
2023/01/03 14:42:52;;;;;;;9.03;6.57;;;;;;;;;;4963027;28;20190;-91
2023/01/03 14:45:19;;;;;;;9.90;6.67;;;;;;;;;;4963682;28;20182;-89
2023/01/03 14:48:04;;;;;;;10.33;7.63;;;;;;;;;;4977209;28;20220;-89
2023/01/03 14:50:34;;;;;;;11.17;7.23;;;;;;;;;;4965316;28;20236;-90
2023/01/03 14:53:04;;;;;;;11.03;7.23;;;;;;;;;;4964778;28;20205;-90
2023/01/03 14:55:33;;;;;;;10.70;7.43;;;;;;;;;;4961026;28;20263;-89
2023/01/03 14:58:01;;;;;;;10.17;6.70;;;;;;;;;;4971301;28;20257;-89
2023/01/03 15:00:35;;;;;;;10.80;7.17;;;;;;;;;;4963587;28;20179;-90
2023/01/03 15:03:01;;;;;;;14.03;7.17;;;;;;;;;;4974594;28;20187;-89
2023/01/03 15:05:32;;;;;;;9.30;6.77;;;;;;;;;;4951378;28;20187;-90
2023/01/03 15:08:07;;;;;;;9.07;6.70;;;;;;;;;;4965372;28;20241;-89
2023/01/03 15:10:40;;;;;;;13.93;6.70;;;;;;;;;;4955463;28;20286;-88
2023/01/03 15:13:17;;;;;;;11.30;7.40;;;;;;;;;;4957751;28;20175;-89
2023/01/03 15:15:43;;;;;;;10.60;6.30;;;;;;;;;;4948588;28;20214;-88
2023/01/03 15:18:18;;;;;;;10.47;6.07;;;;;;;;;;4949088;28;20222;-90
2023/01/03 15:20:44;;;;;;;11.07;5.37;;;;;;;;;;4959122;28;20264;-91
2023/01/03 15:23:27;;;;;;;10.23;5.70;;;;;;;;;;4949493;28;20207;-89
2023/01/03 15:25:57;;;;;;;9.73;5.93;;;;;;;;;;4942752;28;20211;-90
2023/01/03 15:28:26;;;;;;;8.77;5.40;;;;;;;;;;4947381;28;20187;-89
2023/01/03 15:30:53;;;;;;;9.30;4.97;;;;;;;;;;4956983;28;20214;-89
2023/01/03 15:33:32;;;;;;;7.30;4.80;;;;;;;;;;4954447;28;20195;-90
2023/01/03 15:36:04;;;;;;;10.77;4.97;;;;;;;;;;4939051;28;20193;-91
2023/01/03 15:39:02;;;;;;;8.67;5.17;;;;;;;;;;4955014;28;20194;-89
2023/01/03 15:44:22;;;;;;;5.80;4.50;;;;;;;;;;4975161;28;20222;-92
2023/01/03 15:46:49;;;;;;;6.60;4.63;;;;;;;;;;4957148;28;20273;-90
2023/01/03 15:49:20;;;;;;;8.93;4.83;;;;;;;;;;4959206;28;20187;-91
2023/01/03 15:51:46;;;;;;;9.03;4.63;;;;;;;;;;4945572;28;20351;-90
2023/01/03 15:57:07;;;;;;;7.60;4.90;;;;;;;;;;4956713;28;20180;-86
2023/01/03 15:59:35;;;;;;;6.93;4.33;;;;;;;;;;4939722;28;20211;-86
2023/01/03 16:02:13;;;;;;;7.83;4.90;;;;;;;;;;4939644;29;20187;-88
2023/01/03 16:04:41;;;;;;;16.53;5.07;;;;;;;;;;4939292;28;20301;-88
2023/01/03 16:07:08;;;;;;;7.50;4.87;;;;;;;;;;4969257;28;20183;-86
2023/01/03 16:09:35;;;;;;;8.50;4.77;;;;;;;;;;4957013;28;20192;-87
2023/01/03 16:12:01;;;;;;;12.97;5.03;;;;;;;;;;4955181;28;20206;-86
2023/01/03 16:14:38;;;;;;;10.50;4.97;;;;;;;;;;4955030;28;20226;-87
2023/01/03 16:17:04;;;;;;;9.80;4.73;;;;;;;;;;4988375;28;20201;-87
2023/01/03 16:19:31;;;;;;;10.10;4.97;;;;;;;;;;4969441;28;20277;-86
2023/01/03 16:21:59;;;;;;;10.20;5.83;;;;;;;;;;4972963;28;20225;-86
2023/01/03 16:24:35;;;;;;;8.23;5.40;;;;;;;;;;4972217;28;20187;-86
2023/01/03 16:27:05;;;;;;;9.40;5.80;;;;;;;;;;4970884;28;20194;-87
2023/01/03 16:29:34;;;;;;;13.53;6.57;;;;;;;;;;4987588;28;20179;-89
2023/01/03 16:32:00;;;;;;;9.13;5.97;;;;;;;;;;4964814;28;20298;-86
2023/01/03 16:34:29;;;;;;;10.57;5.50;;;;;;;;;;4963032;28;20180;-88
2023/01/03 16:37:03;;;;;;;9.67;5.73;;;;;;;;;;4962587;28;20178;-86
2023/01/03 16:39:32;;;;;;;11.13;5.63;;;;;;;;;;4939499;28;20211;-87
2023/01/03 16:42:13;;;;;;;12.13;5.95;;;;;;;;;;4986522;28;20427;-86
2023/01/03 16:44:42;;;;;;;9.90;5.37;;;;;;;;;;4987301;28;20186;-86
2023/01/03 16:47:34;;;;;;;11.93;5.90;;;;;;;;;;4964619;28;20193;-87
2023/01/03 16:50:21;;;;;;;9.33;6.30;;;;;;;;;;4974344;28;20217;-88
2023/01/03 16:53:10;;;;;;;9.20;5.53;;;;;;;;;;4958006;28;20184;-88
2023/01/03 16:55:42;;;;;;;9.37;5.20;;;;;;;;;;4962793;28;20262;-87
2023/01/03 16:58:16;;;;;;;10.80;5.50;;;;;;;;;;4973151;28;20197;-88
2023/01/03 17:03:46;;;;;;;8.50;5.37;;;;;;;;;;5002302;23;20227;-79
2023/01/03 17:06:21;;;;;;;7.03;4.87;;;;;;;;;;4967306;28;20179;-83
2023/01/03 17:08:47;;;;;;;11.33;5.60;;;;;;;;;;4979389;28;20178;-80
2023/01/03 17:11:14;;;;;;;11.20;5.63;;;;;;;;;;4962797;28;20237;-81
2023/01/03 17:13:41;;;;;;;9.13;5.60;;;;;;;;;;4980291;28;20194;-80
2023/01/03 17:16:17;;;;;;;11.00;5.27;;;;;;;;;;4979920;28;20197;-81
2023/01/03 17:18:44;;;;;;;9.90;5.20;;;;;;;;;;4980010;28;20190;-80
2023/01/03 17:21:30;;;;;;;9.00;5.00;;;;;;;;;;4973514;28;20196;-80
2023/01/03 17:24:01;;;;;;;8.67;5.37;;;;;;;;;;4966423;28;20186;-84
2023/01/03 17:26:29;;;;;;;11.50;4.97;;;;;;;;;;4966980;28;20186;-84
2023/01/03 17:28:55;;;;;;;12.90;5.27;;;;;;;;;;4980582;28;20192;-84